Bostwick, Florida
Current Conditions -  °F | °C
As of 9:15 AM on Sunday 23 Nov 2014 (Local Time) from K28J Reporting Station
Overcast Overcast  
Wind Chill: 73°   Ceiling: 1200
Heat Index: 73°   Visibility: 10mi
Dew Point: 73°   Wind: 13mph
Humidity: 100%   Direction: 190°S
Pressure: 30"   Gusts: 20mph
Location:  29.77°N, 81.64°W
Report Text: K28J 231415Z AUTO 19011G17KT 10SM OVC012 23/23 A3000 RMK AO2
Loading
Personal Weather Stations






























Interactive Weather Map New forecast layout! Learn more

10-Day Weather Forecast

Advertisements
Track Severe Weather on mobile